Atlantic, North Carolina
Current Conditions -  °F | °C
As of 10:56 AM on Thursday 30 Oct 2014 (Local Time) from KNBT Reporting Station
Haze Haze  
Wind Chill: 65°   Ceiling: 3800
Heat Index: 65°   Visibility: 6mi
Dew Point: 54°   Wind: 15mph
Humidity: 68%   Direction: 30°NNE
Pressure: 30.01"   Gusts: 23mph
Location:  34.89°N, 76.34°W
Report Text: KNBT 301456Z AUTO 03013G20KT 6SM HZ FEW020 BKN038 18/12 A3001 RMK AO2 SLP166 6//// T01830122 53008 PNO
Loading
Personal Weather Stations






























Interactive Weather Map New forecast layout! Learn more

10-Day Weather Forecast

Advertisements
Track Severe Weather on mobile